createdAt,value
2018-01-23T16:53:08.806Z,101069.09
2018-01-23T16:55:36.397Z,101072.16
2018-01-23T16:58:04.013Z,101072.90
2018-01-23T17:00:31.610Z,101080.63
2018-01-23T17:02:59.146Z,101088.84
2018-01-23T17:05:26.746Z,101086.55
2018-01-23T17:07:54.294Z,101090.64
2018-01-23T17:10:21.878Z,101097.16
2018-01-23T17:12:49.471Z,101106.70
2018-01-23T17:15:17.014Z,101109.92
2018-01-23T17:17:44.553Z,101108.61
2018-01-23T17:20:12.155Z,101116.73
2018-01-23T17:22:39.734Z,101117.12
2018-01-23T17:25:07.265Z,101121.23
2018-01-23T17:27:34.845Z,101120.34
2018-01-23T17:30:02.396Z,101124.19
2018-01-23T17:32:29.930Z,101126.84
2018-01-23T17:34:57.620Z,101129.28
2018-01-23T17:37:25.157Z,101127.91
2018-01-23T17:39:52.694Z,101129.92
2018-01-23T17:42:20.303Z,101131.20
2018-01-23T17:44:47.902Z,101137.19
2018-01-23T17:47:15.486Z,101140.01
2018-01-23T17:49:43.026Z,101140.73
2018-01-23T17:52:10.573Z,101140.48
2018-01-23T17:54:38.126Z,101145.11
2018-01-23T17:57:05.665Z,101153.71
2018-01-23T17:59:33.238Z,101152.64
2018-01-23T18:02:00.774Z,101152.52
2018-01-23T18:04:28.306Z,101157.73
2018-01-23T18:06:55.850Z,101159.95
2018-01-23T18:09:23.390Z,101153.94
2018-01-23T18:11:50.965Z,101155.50
2018-01-23T18:14:18.510Z,101155.30
2018-01-23T18:16:46.059Z,101162.73
2018-01-23T18:19:13.610Z,101162.13
2018-01-23T18:21:41.149Z,101165.20
2018-01-23T18:24:08.717Z,101165.13
2018-01-23T18:26:36.250Z,101174.79
2018-01-23T18:29:03.798Z,101169.91
2018-01-23T18:31:31.342Z,101171.63
2018-01-23T18:33:58.886Z,101177.09
2018-01-23T18:36:26.490Z,101182.78
2018-01-23T18:38:54.022Z,101181.55
2018-01-23T18:41:21.566Z,101188.56
2018-01-23T18:43:49.118Z,101188.13
2018-01-23T18:46:16.667Z,101188.69
2018-01-23T18:48:44.270Z,101194.08
2018-01-23T18:51:11.813Z,101191.34
2018-01-23T18:53:39.354Z,101197.50
2018-01-23T18:56:06.905Z,101207.67
2018-01-23T18:58:34.442Z,101206.91
2018-01-23T19:01:02.019Z,101205.86
2018-01-23T19:03:30.201Z,101210.48
2018-01-23T19:05:57.734Z,101217.19
2018-01-23T19:08:25.287Z,101220.50
2018-01-23T19:10:52.824Z,101220.94
2018-01-23T19:13:21.350Z,101224.16
2018-01-23T19:15:48.942Z,101225.52
2018-01-23T19:18:16.542Z,101231.29
2018-01-23T19:20:44.102Z,101229.94
2018-01-23T19:23:11.706Z,101232.59
2018-01-23T19:25:39.584Z,101240.77
2018-01-23T19:28:07.514Z,101242.92
2018-01-23T19:30:35.178Z,101244.84
2018-01-23T19:33:02.752Z,101246.86
2018-01-23T19:35:30.292Z,101262.06
2018-01-23T19:37:57.943Z,101266.58
2018-01-23T19:40:25.555Z,101272.58
2018-01-23T19:42:53.098Z,101281.27
2018-01-23T19:45:20.647Z,101282.47
2018-01-23T19:47:48.189Z,101286.36
2018-01-23T19:50:15.834Z,101294.20
2018-01-23T19:52:43.475Z,101296.11
2018-01-23T19:55:11.039Z,101300.12
2018-01-23T19:57:38.618Z,101295.88
2018-01-23T20:00:06.165Z,101306.02
2018-01-23T20:02:33.748Z,101304.48
2018-01-23T20:05:01.286Z,101305.89
2018-01-23T20:07:28.821Z,101313.02
2018-01-23T20:09:56.435Z,101310.38
2018-01-23T20:12:24.031Z,101312.20
2018-01-23T20:14:51.622Z,101311.73
2018-01-23T20:17:19.169Z,101306.83
2018-01-23T20:19:46.762Z,101309.13
2018-01-23T20:22:14.424Z,101317.20
2018-01-23T20:24:41.964Z,101321.63
2018-01-23T20:27:09.552Z,101321.94
2018-01-23T20:29:37.082Z,101319.64
2018-01-23T20:32:04.622Z,101323.45
2018-01-23T20:34:32.344Z,101328.62
2018-01-23T20:36:59.749Z,101328.06
2018-01-23T20:39:27.339Z,101338.15
2018-01-23T20:41:54.883Z,101341.28
2018-01-23T20:44:22.422Z,101353.13
2018-01-23T20:46:49.976Z,101355.27
2018-01-23T20:49:17.513Z,101348.34
2018-01-23T20:51:45.136Z,101353.48
2018-01-23T20:54:12.666Z,101363.03
2018-01-23T20:56:40.264Z,101368.38
2018-01-23T20:59:07.806Z,101375.00
2018-01-23T21:01:35.358Z,101378.15
2018-01-23T21:04:03.003Z,101376.71
2018-01-23T21:06:30.542Z,101385.86
2018-01-23T21:08:58.142Z,101382.87
2018-01-23T21:11:25.682Z,101381.32
2018-01-23T21:13:53.218Z,101391.52
2018-01-23T21:16:20.822Z,101392.16
2018-01-23T21:18:48.350Z,101393.57
2018-01-23T21:21:15.898Z,101393.37
2018-01-23T21:23:43.522Z,101388.32
2018-01-23T21:26:11.058Z,101388.78
2018-01-23T21:28:38.648Z,101388.36
2018-01-23T21:31:06.178Z,101387.69
2018-01-23T21:33:33.713Z,101386.09
2018-01-23T21:36:01.318Z,101381.30
2018-01-23T21:38:28.851Z,101394.09
2018-01-23T21:40:56.434Z,101399.39
2018-01-23T21:43:24.022Z,101390.09
2018-01-23T21:45:51.554Z,101388.05
2018-01-23T21:48:19.102Z,101393.88
2018-01-23T21:50:46.639Z,101389.23
2018-01-23T21:53:14.278Z,101393.03
2018-01-23T21:55:41.874Z,101391.00
2018-01-23T21:58:09.471Z,101392.47
2018-01-23T22:00:37.014Z,101397.48
2018-01-23T22:03:04.607Z,101405.86
2018-01-23T22:05:32.190Z,101407.42
2018-01-23T22:07:59.725Z,101413.08
2018-01-23T22:10:27.317Z,101417.77
2018-01-23T22:12:54.922Z,101417.30
2018-01-23T22:15:22.457Z,101412.83
2018-01-23T22:17:50.096Z,101423.09
2018-01-23T22:20:17.633Z,101431.06
2018-01-23T22:22:45.226Z,101427.56
2018-01-23T22:25:12.770Z,101425.66
2018-01-23T22:27:40.310Z,101422.08
2018-01-23T22:30:07.974Z,101417.83
2018-01-23T22:32:35.566Z,101424.55
2018-01-23T22:35:03.098Z,101423.27
2018-01-23T22:37:30.710Z,101425.34
2018-01-23T22:39:58.242Z,101431.03
2018-01-23T22:42:25.886Z,101426.85
2018-01-23T22:44:53.426Z,101426.89
2018-01-23T22:47:20.961Z,101426.96
2018-01-23T22:49:48.505Z,101428.61
2018-01-23T22:52:16.038Z,101429.89
2018-01-23T22:54:43.614Z,101430.78
2018-01-23T22:57:11.150Z,101441.81
2018-01-23T22:59:38.750Z,101433.40
2018-01-23T23:02:06.354Z,101439.16
2018-01-23T23:04:33.886Z,101438.16
2018-01-23T23:07:01.465Z,101441.50
2018-01-23T23:09:29.063Z,101444.22
2018-01-23T23:11:56.663Z,101444.54
2018-01-23T23:14:24.209Z,101435.88
2018-01-23T23:16:51.737Z,101442.59
2018-01-23T23:19:19.347Z,101446.78
2018-01-23T23:21:46.886Z,101444.55
2018-01-23T23:24:14.478Z,101449.88
2018-01-23T23:26:42.111Z,101452.52
2018-01-23T23:29:09.710Z,101454.67
2018-01-23T23:31:37.285Z,101459.89
2018-01-23T23:34:04.838Z,101459.11
2018-01-23T23:36:32.370Z,101468.05
2018-01-23T23:38:59.917Z,101470.42
2018-01-23T23:41:27.445Z,101479.94
2018-01-23T23:43:55.082Z,101478.83
2018-01-23T23:46:22.614Z,101484.41
2018-01-23T23:48:50.145Z,101488.63
2018-01-23T23:51:17.686Z,101491.28
2018-01-23T23:53:45.284Z,101497.33
2018-01-23T23:56:12.927Z,101496.28
2018-01-23T23:58:40.467Z,101495.78
